Time;durP1;ratioP1;P1;durP2;ratioP2;P2;SDS_P1;SDS_P2;PMS_P1;PMS_P2;Temp;Humidity;BMP_temperature;BMP_pressure;BME280_temperature;BME280_humidity;BME280_pressure;Samples;Min_cycle;Max_cycle;Signal;HPM_P1;HPM_P2
2021/08/11 00:03:11;;;;;;;;;3.00;2.50;;;;;21.99;100.00;101620.97;5119054;27;45359;-68
2021/08/11 00:05:37;;;;;;;;;3.00;3.00;;;;;22.04;100.00;101642.91;5118989;27;45305;-68
2021/08/11 00:08:02;;;;;;;;;3.00;3.00;;;;;21.92;100.00;101623.03;5118538;27;47123;-68
2021/08/11 00:10:27;;;;;;;;;2.75;2.00;;;;;22.02;100.00;101639.44;5118585;27;45520;-68
2021/08/11 00:12:53;;;;;;;;;1.75;1.75;;;;;22.00;100.00;101639.50;5118676;27;45278;-68
2021/08/11 00:15:18;;;;;;;;;1.75;1.75;;;;;22.00;100.00;101633.34;5118760;27;45285;-67
2021/08/11 00:17:44;;;;;;;;;2.00;2.00;;;;;21.98;100.00;101640.53;5118565;27;47418;-67
2021/08/11 00:20:10;;;;;;;;;2.50;1.50;;;;;21.95;100.00;101644.19;5118536;27;45429;-68
2021/08/11 00:22:35;;;;;;;;;3.25;3.00;;;;;21.81;100.00;101620.03;5118769;27;45238;-68
2021/08/11 00:25:00;;;;;;;;;2.00;2.00;;;;;21.86;100.00;101636.63;5099570;27;45363;-67
2021/08/11 00:27:26;;;;;;;;;1.50;1.50;;;;;21.83;100.00;101639.44;5118677;27;45619;-67
2021/08/11 00:33:13;;;;;;;;;1.50;1.50;;;;;21.81;100.00;101656.41;5118105;27;45489;-68
2021/08/11 00:35:38;;;;;;;;;1.75;1.75;;;;;21.75;100.00;101651.38;5118615;27;45523;-68
2021/08/11 00:38:04;;;;;;;;;2.75;1.75;;;;;21.77;100.00;101653.03;5118210;27;45507;-68
2021/08/11 00:40:31;;;;;;;;;2.75;2.00;;;;;21.59;100.00;101633.47;5118463;27;45308;-69
2021/08/11 00:42:57;;;;;;;;;1.75;1.75;;;;;21.76;100.00;101661.06;5119371;27;45410;-69
2021/08/11 00:48:45;;;;;;;;;1.75;1.75;;;;;21.84;100.00;101672.22;5121734;27;45732;-69
2021/08/11 00:51:10;;;;;;;;;0.75;0.50;;;;;21.82;100.00;101666.09;5122125;27;45247;-68
2021/08/11 00:53:39;;;;;;;;;1.50;1.25;;;;;21.86;100.00;101667.69;5121927;27;45416;-68
2021/08/11 00:56:05;;;;;;;;;1.50;1.50;;;;;21.85;100.00;101665.97;5122190;27;45437;-68
2021/08/11 00:58:33;;;;;;;;;2.25;2.25;;;;;21.80;100.00;101662.66;5121620;27;46690;-68
2021/08/11 01:01:01;;;;;;;;;1.50;1.50;;;;;21.86;100.00;101665.03;5121980;27;45385;-68
2021/08/11 01:03:28;;;;;;;;;0.75;0.75;;;;;21.85;100.00;101663.28;5103144;27;45434;-68
2021/08/11 01:05:59;;;;;;;;;0.50;0.00;;;;;21.80;100.00;101652.03;5122362;27;45475;-68
2021/08/11 01:08:25;;;;;;;;;1.25;1.25;;;;;21.82;100.00;101661.66;5121814;27;45715;-68
2021/08/11 01:10:52;;;;;;;;;1.75;0.75;;;;;21.80;100.00;101658.19;5121566;27;45429;-68
2021/08/11 01:13:18;;;;;;;;;1.25;0.75;;;;;21.82;100.00;101666.97;5121887;27;45274;-68
2021/08/11 01:19:05;;;;;;;;;2.75;2.75;;;;;21.72;100.00;101652.34;5121433;27;45767;-68
2021/08/11 01:21:54;;;;;;;;;2.00;1.75;;;;;21.70;100.00;101655.09;5121870;27;45244;-68
2021/08/11 01:24:35;;;;;;;;;3.50;1.75;;;;;21.63;100.00;101648.34;5121734;27;45276;-68
2021/08/11 01:27:35;;;;;;;;;2.50;2.00;;;;;21.61;100.00;101647.53;5122112;27;45266;-68
2021/08/11 01:30:15;;;;;;;;;2.00;2.00;;;;;21.54;100.00;101645.25;5121181;27;46994;-68
2021/08/11 01:32:47;;;;;;;;;2.00;2.00;;;;;21.50;100.00;101648.94;5121205;27;45319;-68
2021/08/11 01:35:17;;;;;;;;;2.75;2.00;;;;;21.44;100.00;101647.44;5121729;27;45370;-68
2021/08/11 01:37:44;;;;;;;;;4.00;2.50;;;;;21.38;100.00;101656.56;5121723;27;45433;-67
2021/08/11 01:40:16;;;;;;;;;2.25;1.75;;;;;21.36;100.00;101663.72;5121246;27;45602;-68
2021/08/11 01:42:44;;;;;;;;;2.00;2.00;;;;;21.27;100.00;101652.63;5121508;27;45436;-67
2021/08/11 01:45:21;;;;;;;;;3.00;2.50;;;;;21.24;100.00;101645.66;5121093;27;45401;-68
2021/08/11 01:47:52;;;;;;;;;2.00;2.00;;;;;21.07;100.00;101611.88;5121145;27;45395;-68
2021/08/11 01:50:21;;;;;;;;;3.25;2.50;;;;;21.21;100.00;101639.59;5120741;27;46185;-68
2021/08/11 01:52:49;;;;;;;;;3.00;2.00;;;;;21.15;100.00;101637.22;5120925;27;45377;-67
2021/08/11 01:55:14;;;;;;;;;2.00;2.00;;;;;21.11;100.00;101633.84;5120328;27;45270;-67
2021/08/11 01:57:44;;;;;;;;;1.75;1.75;;;;;21.03;100.00;101626.19;5121176;27;45472;-68
2021/08/11 02:00:11;;;;;;;;;1.75;1.75;;;;;20.99;100.00;101627.25;5120502;27;46995;-68
2021/08/11 02:02:37;;;;;;;;;3.75;2.00;;;;;20.95;100.00;101620.38;5120684;27;45561;-68
2021/08/11 02:05:08;;;;;;;;;2.00;2.00;;;;;20.97;100.00;101633.56;5121225;27;45383;-68
2021/08/11 02:07:34;;;;;;;;;2.00;2.00;;;;;20.91;100.00;101624.09;5121076;27;45468;-68
2021/08/11 02:10:00;;;;;;;;;2.50;2.00;;;;;20.93;100.00;101629.31;5120907;27;45374;-68
2021/08/11 02:12:26;;;;;;;;;2.25;2.00;;;;;20.87;100.00;101624.28;5120892;27;45560;-68
2021/08/11 02:14:52;;;;;;;;;2.75;2.75;;;;;20.85;100.00;101619.03;5120915;27;45458;-68
2021/08/11 02:17:19;;;;;;;;;2.75;2.00;;;;;20.83;100.00;101630.66;5120921;27;45275;-68
2021/08/11 02:19:45;;;;;;;;;2.00;2.00;;;;;20.76;100.00;101625.59;5120480;27;46269;-67
2021/08/11 02:22:10;;;;;;;;;2.00;2.00;;;;;20.69;100.00;101624.13;5120808;27;45274;-68
2021/08/11 02:24:36;;;;;;;;;2.25;2.25;;;;;20.69;100.00;101628.59;5120454;27;45208;-68
2021/08/11 02:27:16;;;;;;;;;4.50;3.00;;;;;20.68;100.00;101629.50;5120763;27;45191;-68
2021/08/11 02:30:13;;;;;;;;;2.50;2.50;;;;;20.65;100.00;101630.50;5120638;27;46227;-68
2021/08/11 02:32:47;;;;;;;;;2.00;2.00;;;;;20.63;100.00;101618.22;5120234;27;45484;-68
2021/08/11 02:35:16;;;;;;;;;2.75;2.25;;;;;20.56;100.00;101612.28;5120448;27;45260;-67
2021/08/11 02:37:50;;;;;;;;;3.00;3.00;;;;;20.56;100.00;101625.56;5120470;27;45221;-67
2021/08/11 02:40:35;;;;;;;;;3.00;2.00;;;;;20.55;100.00;101621.19;5120184;27;46652;-68
2021/08/11 02:43:21;;;;;;;;;3.75;3.75;;;;;20.52;100.00;101617.81;5120137;27;45609;-67
2021/08/11 02:45:53;;;;;;;;;2.75;2.00;;;;;20.52;100.00;101623.09;5120131;27;45286;-68
2021/08/11 02:48:20;;;;;;;;;2.50;2.50;;;;;20.42;100.00;101610.25;5120376;27;45325;-68
2021/08/11 02:50:49;;;;;;;;;3.50;3.00;;;;;20.47;100.00;101623.31;5119891;27;47310;-68
2021/08/11 02:53:19;;;;;;;;;3.00;3.00;;;;;20.40;100.00;101609.44;5119951;27;45604;-67
2021/08/11 02:55:45;;;;;;;;;2.00;2.00;;;;;20.36;100.00;101614.88;5120264;27;45469;-68
2021/08/11 02:58:12;;;;;;;;;3.75;2.00;;;;;20.42;100.00;101625.28;5120664;27;45359;-68
2021/08/11 03:00:38;;;;;;;;;3.50;3.50;;;;;20.40;100.00;101625.34;5119505;27;47612;-68
2021/08/11 03:03:04;;;;;;;;;2.75;2.75;;;;;20.35;100.00;101614.00;5120019;27;45619;-68
2021/08/11 03:05:32;;;;;;;;;2.75;2.00;;;;;20.38;100.00;101626.31;5120205;27;45377;-68
2021/08/11 03:07:59;;;;;;;;;3.00;3.00;;;;;20.28;100.00;101611.69;5119116;27;45372;-68
2021/08/11 03:10:25;;;;;;;;;3.75;2.75;;;;;20.25;100.00;101604.72;5119799;27;45443;-68
2021/08/11 03:12:50;;;;;;;;;3.00;2.00;;;;;20.33;100.00;101617.66;5119987;27;45257;-67
2021/08/11 03:15:16;;;;;;;;;2.25;2.25;;;;;20.31;100.00;101620.38;5119641;27;45377;-67
2021/08/11 03:17:44;;;;;;;;;4.00;3.25;;;;;20.31;100.00;101617.72;5120255;27;45411;-68
2021/08/11 03:20:11;;;;;;;;;2.00;2.00;;;;;20.34;100.00;101628.19;5101041;27;47395;-68
2021/08/11 03:22:36;;;;;;;;;3.75;3.25;;;;;20.36;100.00;101629.00;5119631;27;45428;-68
2021/08/11 03:25:01;;;;;;;;;2.75;2.75;;;;;20.27;100.00;101608.16;5119979;27;45384;-68
2021/08/11 03:27:27;;;;;;;;;4.50;3.00;;;;;20.40;100.00;101628.00;5119743;27;45382;-68
2021/08/11 03:29:52;;;;;;;;;5.25;4.50;;;;;20.41;100.00;101621.78;5119340;27;45350;-68
2021/08/11 03:32:18;;;;;;;;;2.50;2.50;;;;;20.51;100.00;101632.00;5118914;27;45308;-68
2021/08/11 03:34:43;;;;;;;;;4.00;4.00;;;;;20.55;100.00;101637.09;5119480;27;45323;-69
2021/08/11 03:37:13;;;;;;;;;2.50;2.00;;;;;20.60;100.00;101645.75;5119865;27;45270;-67
2021/08/11 03:39:38;;;;;;;;;4.00;4.00;;;;;20.65;100.00;101653.53;5119504;27;45506;-67
2021/08/11 03:42:04;;;;;;;;;2.75;2.75;;;;;20.65;100.00;101650.88;5118974;27;45369;-67
2021/08/11 03:44:29;;;;;;;;;4.00;3.00;;;;;20.65;100.00;101650.88;5119403;27;45650;-66
2021/08/11 03:46:54;;;;;;;;;4.00;4.00;;;;;20.70;100.00;101657.72;5119544;27;45402;-66
2021/08/11 03:49:20;;;;;;;;;3.00;3.00;;;;;20.68;100.00;101642.78;5100284;27;46431;-67
2021/08/11 03:51:46;;;;;;;;;4.00;3.00;;;;;20.76;100.00;101651.28;5118681;27;45351;-67
2021/08/11 03:54:11;;;;;;;;;3.75;2.00;;;;;20.76;100.00;101653.94;5118849;27;45514;-67
2021/08/11 03:56:36;;;;;;;;;2.25;2.25;;;;;20.78;100.00;101657.38;5119495;27;45432;-67
2021/08/11 03:59:02;;;;;;;;;3.75;3.00;;;;;20.67;100.00;101636.59;5119135;27;46306;-67
2021/08/11 04:04:49;;;;;;;;;3.00;3.00;;;;;20.66;100.00;101642.84;5119099;27;45385;-67
2021/08/11 04:07:14;;;;;;;;;3.00;3.00;;;;;20.64;100.00;101642.06;5119453;27;45351;-67
2021/08/11 04:09:39;;;;;;;;;2.25;2.25;;;;;20.67;100.00;101651.66;5119095;27;46321;-67
2021/08/11 04:12:05;;;;;;;;;2.00;2.00;;;;;20.66;100.00;101647.28;5118961;27;45366;-67
2021/08/11 04:14:30;;;;;;;;;3.00;2.00;;;;;20.62;100.00;101643.03;5119126;27;45373;-66
2021/08/11 04:16:56;;;;;;;;;3.00;2.00;;;;;20.56;100.00;101648.59;5100271;27;45448;-66
2021/08/11 04:19:21;;;;;;;;;2.00;2.00;;;;;20.47;100.00;101645.38;5118320;27;45391;-67
2021/08/11 04:21:47;;;;;;;;;3.25;3.25;;;;;20.49;100.00;101654.16;5118436;27;45333;-66
2021/08/11 04:24:12;;;;;;;;;2.50;2.50;;;;;20.47;100.00;101666.63;5118738;27;45509;-66
2021/08/11 04:26:37;;;;;;;;;3.75;3.00;;;;;20.40;100.00;101665.16;5118840;27;45451;-66
2021/08/11 04:29:03;;;;;;;;;3.00;2.25;;;;;20.42;100.00;101665.94;5118317;27;46166;-66
2021/08/11 04:34:50;;;;;;;;;3.75;3.00;;;;;20.26;100.00;101651.53;5116592;27;45508;-67
2021/08/11 04:37:16;;;;;;;;;3.00;2.00;;;;;20.32;100.00;101661.03;5118854;27;45502;-66
2021/08/11 04:39:41;;;;;;;;;2.75;2.75;;;;;20.19;100.00;101645.63;5118187;27;47346;-66
2021/08/11 04:42:06;;;;;;;;;3.00;3.00;;;;;20.25;100.00;101663.06;5118595;27;45296;-66
2021/08/11 04:44:32;;;;;;;;;3.00;3.00;;;;;20.28;100.00;101670.91;5118603;27;45387;-66
2021/08/11 04:50:19;;;;;;;;;3.00;2.00;;;;;20.19;100.00;101655.34;5118291;27;45424;-66
2021/08/11 04:52:44;;;;;;;;;2.00;2.00;;;;;20.24;100.00;101663.13;5118540;27;45365;-66
2021/08/11 04:55:12;;;;;;;;;2.25;2.25;;;;;20.12;100.00;101654.72;5118609;27;45377;-67
2021/08/11 04:57:38;;;;;;;;;2.75;2.75;;;;;20.20;100.00;101667.69;5118926;27;45432;-67
2021/08/11 05:00:03;;;;;;;;;3.00;3.00;;;;;20.18;100.00;101673.06;5117765;27;46371;-67
2021/08/11 05:02:29;;;;;;;;;2.75;2.75;;;;;20.13;100.00;101671.50;5118003;27;45181;-67
2021/08/11 05:04:54;;;;;;;;;4.00;3.00;;;;;20.15;100.00;101680.28;5117980;27;45217;-67
2021/08/11 05:07:19;;;;;;;;;3.00;3.00;;;;;20.06;100.00;101670.00;5118541;27;45321;-67
2021/08/11 05:09:45;;;;;;;;;3.00;3.00;;;;;20.09;100.00;101675.19;5117801;27;45993;-67
2021/08/11 05:12:10;;;;;;;;;4.75;4.00;;;;;20.14;100.00;101683.81;5118053;27;45281;-67
2021/08/11 05:14:36;;;;;;;;;2.00;2.00;;;;;20.11;100.00;101679.50;5117968;27;45321;-68
2021/08/11 05:20:22;;;;;;;;;3.75;3.75;;;;;20.16;100.00;101693.47;5117839;27;45334;-68
2021/08/11 05:22:48;;;;;;;;;3.25;3.25;;;;;20.19;100.00;101697.78;5117770;27;45334;-67
2021/08/11 05:25:14;;;;;;;;;4.00;4.00;;;;;20.15;100.00;101683.78;5117836;27;45227;-67
2021/08/11 05:27:40;;;;;;;;;4.00;4.00;;;;;20.20;100.00;101691.56;5117639;27;45369;-67
2021/08/11 05:30:08;;;;;;;;;5.00;5.00;;;;;20.24;100.00;101703.78;5118993;27;45411;-67
2021/08/11 05:32:33;;;;;;;;;5.50;3.75;;;;;20.17;100.00;101692.53;5120926;27;45420;-67
2021/08/11 05:34:59;;;;;;;;;4.25;4.00;;;;;20.22;100.00;101689.72;5121178;27;45390;-67
2021/08/11 05:37:25;;;;;;;;;4.25;4.25;;;;;20.29;100.00;101703.59;5121613;27;45381;-67
2021/08/11 05:39:50;;;;;;;;;4.00;4.00;;;;;20.23;100.00;101687.91;5121261;27;46021;-67
2021/08/11 05:42:15;;;;;;;;;3.00;3.00;;;;;20.29;100.00;101690.31;5121343;27;45487;-67
2021/08/11 05:44:41;;;;;;;;;4.00;4.00;;;;;20.34;100.00;101698.97;5121300;27;45423;-67
2021/08/11 05:50:28;;;;;;;;;6.25;5.00;;;;;20.40;100.00;101712.91;5120869;27;45352;-67
2021/08/11 05:52:53;;;;;;;;;6.50;5.00;;;;;20.45;100.00;101708.25;5121010;27;45540;-68
2021/08/11 05:55:19;;;;;;;;;6.75;5.00;;;;;20.46;100.00;101703.81;5121109;27;45460;-68
2021/08/11 05:57:44;;;;;;;;;6.25;5.00;;;;;20.61;100.00;101712.97;5121160;27;45370;-67
2021/08/11 06:00:10;;;;;;;;;5.25;5.00;;;;;20.70;100.00;101726.72;5120888;27;46951;-67
2021/08/11 06:05:57;;;;;;;;;4.00;4.00;;;;;20.87;100.00;101718.06;5120790;27;45241;-67
2021/08/11 06:08:22;;;;;;;;;5.25;5.25;;;;;21.07;100.00;101734.03;5120897;27;45217;-68
2021/08/11 06:10:47;;;;;;;;;5.50;5.00;;;;;21.13;100.00;101724.94;5120583;27;46617;-68
2021/08/11 06:13:13;;;;;;;;;7.00;5.75;;;;;21.23;100.00;101726.25;5120618;27;45343;-68
2021/08/11 06:15:38;;;;;;;;;6.25;5.75;;;;;21.37;100.00;101737.19;5120653;27;45281;-68
2021/08/11 06:18:03;;;;;;;;;6.00;5.50;;;;;21.45;100.00;101739.50;5120871;27;45537;-68
2021/08/11 06:20:29;;;;;;;;;7.00;5.00;;;;;21.48;100.00;101731.41;5120122;27;46803;-68
2021/08/11 06:22:54;;;;;;;;;6.50;6.25;;;;;21.54;100.00;101739.13;5120149;27;45443;-68
2021/08/11 06:25:20;;;;;;;;;7.00;6.00;;;;;21.53;100.00;101734.75;5120619;27;45327;-68
2021/08/11 06:27:46;;;;;;;;;6.25;5.00;;;;;21.58;100.00;101737.19;5120645;27;45345;-65
2021/08/11 06:30:12;;;;;;;;;5.00;4.25;;;;;21.57;100.00;101736.31;5120343;27;46269;-65
2021/08/11 06:35:59;;;;;;;;;4.00;4.00;;;;;21.57;100.00;101743.44;5118695;27;45448;-64
2021/08/11 06:38:24;;;;;;;;;8.00;4.75;;;;;21.63;100.00;101746.69;5120478;27;45351;-64
2021/08/11 06:40:50;;;;;;;;;7.00;6.50;;;;;21.71;100.00;101752.50;5119902;27;47328;-64
2021/08/11 06:43:15;;;;;;;;;4.75;4.50;;;;;21.73;100.00;101752.47;5120159;27;45422;-63
2021/08/11 06:45:40;;;;;;;;;4.00;3.50;;;;;21.76;100.00;101746.16;5120607;27;45350;-63
2021/08/11 06:48:06;;;;;;;;;4.00;4.00;;;;;21.76;100.00;101740.84;5120614;27;45310;-64
2021/08/11 06:50:32;;;;;;;;;1.50;1.50;;;;;21.82;100.00;101745.88;5120043;27;46056;-64
2021/08/11 06:52:57;;;;;;;;;4.00;1.75;;;;;21.83;100.00;101744.94;5119948;27;45342;-64
2021/08/11 06:55:22;;;;;;;;;2.00;1.00;;;;;21.87;100.00;101743.84;5120135;27;45300;-66
2021/08/11 06:57:50;;;;;;;;;4.00;3.25;;;;;21.87;100.00;101734.06;5120392;27;45556;-64
2021/08/11 07:00:16;;;;;;;;;2.50;2.50;;;;;21.91;100.00;101732.13;5119546;27;46538;-64
2021/08/11 07:06:03;;;;;;;;;5.00;4.25;;;;;22.02;100.00;101738.72;5119708;27;45330;-64
2021/08/11 07:08:29;;;;;;;;;3.50;3.50;;;;;22.07;100.00;101737.66;5119590;27;45357;-64
2021/08/11 07:10:54;;;;;;;;;5.50;3.75;;;;;22.11;100.00;101739.25;5119196;27;47064;-64
2021/08/11 07:13:21;;;;;;;;;5.00;5.00;;;;;22.17;100.00;101745.13;5119165;27;45397;-63
2021/08/11 07:15:46;;;;;;;;;3.50;3.00;;;;;22.17;100.00;101731.81;5118740;27;45225;-63
2021/08/11 07:18:19;;;;;;;;;4.75;3.50;;;;;22.27;100.00;101740.25;5118810;27;45575;-63
2021/08/11 07:20:45;;;;;;;;;3.25;3.25;;;;;22.29;100.00;101749.88;5118910;27;47227;-64
2021/08/11 07:23:11;;;;;;;;;5.50;5.25;;;;;22.30;100.00;101759.59;5118962;27;45599;-64
2021/08/11 07:25:36;;;;;;;;;4.25;3.75;;;;;22.38;100.00;101761.88;5119142;27;45280;-64
2021/08/11 07:28:02;;;;;;;;;6.25;4.50;;;;;22.47;100.00;101757.94;5119365;27;45279;-63
2021/08/11 07:30:28;;;;;;;;;3.75;3.00;;;;;22.58;100.00;101759.13;5118737;27;45873;-63
2021/08/11 07:36:14;;;;;;;;;2.75;2.75;;;;;22.80;100.00;101750.97;5118249;27;45281;-65
2021/08/11 07:38:40;;;;;;;;;2.75;2.25;;;;;22.94;100.00;101754.81;5100633;27;45565;-65
2021/08/11 07:41:05;;;;;;;;;1.00;0.75;;;;;23.05;100.00;101755.97;5118790;27;45552;-67
2021/08/11 07:43:33;;;;;;;;;2.00;1.00;;;;;23.18;100.00;101759.75;5118982;27;45272;-65
2021/08/11 07:45:59;;;;;;;;;2.00;1.00;;;;;23.25;100.00;101760.31;5119101;27;45326;-63
2021/08/11 07:48:24;;;;;;;;;2.25;1.75;;;;;23.32;100.00;101750.22;5119060;27;45355;-64
2021/08/11 07:50:50;;;;;;;;;1.75;1.75;;;;;23.35;100.00;101758.91;5118937;27;45449;-65
2021/08/11 07:53:15;;;;;;;;;1.25;1.25;;;;;23.38;100.00;101750.75;5117885;27;45364;-64
2021/08/11 07:55:40;;;;;;;;;3.00;3.00;;;;;23.40;100.00;101750.66;5118530;27;45393;-64
2021/08/11 07:58:06;;;;;;;;;5.00;3.00;;;;;23.45;100.00;101751.28;5118943;27;45432;-65
2021/08/11 08:00:31;;;;;;;;;4.25;2.25;;;;;23.39;100.00;101741.81;5118399;27;46182;-64
2021/08/11 08:06:18;;;;;;;;;3.25;2.75;;;;;23.49;100.00;101743.03;5118424;27;45432;-66
2021/08/11 08:08:47;;;;;;;;;2.50;2.50;;;;;23.48;100.00;101737.78;5118733;27;45415;-66
2021/08/11 08:11:12;;;;;;;;;3.25;3.00;;;;;23.45;100.00;101727.28;5118531;27;45531;-66
2021/08/11 08:13:38;;;;;;;;;3.25;2.75;;;;;23.51;100.00;101730.50;5118157;27;45334;-66
2021/08/11 08:16:03;;;;;;;;;3.75;2.50;;;;;23.64;100.00;101736.09;5118307;27;45421;-65
2021/08/11 08:18:29;;;;;;;;;2.25;2.25;;;;;23.73;100.00;101722.25;5118686;27;45296;-65
2021/08/11 08:21:03;;;;;;;;;2.25;2.25;;;;;23.95;100.00;101743.28;5118581;27;46262;-63
2021/08/11 08:23:28;;;;;;;;;3.25;3.00;;;;;24.12;100.00;101734.38;5099681;27;45777;-69
2021/08/11 08:25:53;;;;;;;;;3.25;3.25;;;;;24.21;100.00;101719.66;5118183;27;45839;-68
2021/08/11 08:28:19;;;;;;;;;4.50;4.00;;;;;24.57;100.00;101736.31;5100162;27;45541;-69
2021/08/11 08:30:45;;;;;;;;;3.75;3.25;;;;;24.82;100.00;101742.91;5118229;27;46313;-69
2021/08/11 08:36:32;;;;;;;;;4.25;4.00;;;;;25.31;100.00;101749.78;5117629;27;45504;-68
2021/08/11 08:38:58;;;;;;;;;4.00;3.25;;;;;25.48;100.00;101742.56;5118486;27;45433;-67
2021/08/11 08:41:23;;;;;;;;;5.00;4.00;;;;;25.61;100.00;101741.75;5117901;27;45367;-66
2021/08/11 08:43:49;;;;;;;;;3.50;3.00;;;;;25.80;100.00;101740.63;5117625;27;45232;-66
2021/08/11 08:46:18;;;;;;;;;5.75;5.00;;;;;26.01;100.00;101743.75;5117641;27;45263;-66
2021/08/11 08:48:44;;;;;;;;;6.75;5.00;;;;;25.92;100.00;101747.91;5117809;27;45319;-66
2021/08/11 08:51:11;;;;;;;;;5.00;4.50;;;;;25.80;100.00;101754.00;5117636;27;46387;-67
2021/08/11 08:53:38;;;;;;;;;4.50;4.50;;;;;25.68;100.00;101749.41;5117605;27;45311;-66
2021/08/11 08:56:04;;;;;;;;;4.00;4.00;;;;;25.50;100.00;101751.38;5118245;27;45325;-67
2021/08/11 08:58:30;;;;;;;;;3.50;3.50;;;;;25.30;100.00;101753.41;5118246;27;45361;-66
2021/08/11 09:00:56;;;;;;;;;4.25;4.25;;;;;25.06;100.00;101746.84;5117389;27;45349;-67
2021/08/11 09:06:42;;;;;;;;;4.00;4.00;;;;;24.94;100.00;101748.41;5121127;27;45373;-66
2021/08/11 09:09:10;;;;;;;;;5.50;4.50;;;;;25.12;100.00;101745.63;5121834;27;45431;-67
2021/08/11 09:11:39;;;;;;;;;5.25;4.75;;;;;25.44;100.00;101739.22;5121447;27;45502;-67
2021/08/11 09:14:23;;;;;;;;;4.00;3.00;;;;;25.84;100.00;101750.19;5121058;27;45451;-67
2021/08/11 09:16:52;;;;;;;;;4.00;3.50;;;;;26.15;100.00;101738.41;5121444;27;45245;-67
2021/08/11 09:19:18;;;;;;;;;4.50;3.75;;;;;26.30;100.00;101737.44;5121281;27;45608;-66
2021/08/11 09:22:16;;;;;;;;;3.25;3.25;;;;;26.27;100.00;101737.66;5121435;27;46552;-67
2021/08/11 09:24:42;;;;;;;;;4.00;4.00;;;;;26.33;100.00;101733.69;5057476;28;45370;-65
2021/08/11 09:27:40;;;;;;;;;5.00;4.50;;;;;26.69;100.00;101733.13;5057445;27;45569;-66
2021/08/11 09:30:11;;;;;;;;;4.00;3.25;;;;;27.13;100.00;101732.88;5017735;28;45745;-66
2021/08/11 09:32:54;;;;;;;;;4.50;3.25;;;;;27.69;100.00;101734.34;5017317;28;45548;-66
2021/08/11 09:35:22;;;;;;;;;3.00;3.00;;;;;28.28;100.00;101734.59;5017159;28;45357;-66
2021/08/11 09:37:49;;;;;;;;;4.50;4.00;;;;;28.92;100.00;101737.06;5017604;28;45340;-66
2021/08/11 09:40:16;;;;;;;;;3.00;3.00;;;;;29.37;100.00;101731.81;5017397;28;45419;-67
2021/08/11 09:42:43;;;;;;;;;2.75;2.00;;;;;29.55;100.00;101739.34;5017036;28;47090;-67
2021/08/11 09:45:09;;;;;;;;;3.25;3.00;;;;;29.99;100.00;101740.34;5017099;28;45472;-66
2021/08/11 09:47:36;;;;;;;;;3.00;2.25;;;;;30.45;100.00;101734.78;5017123;28;45399;-66
2021/08/11 09:50:08;;;;;;;;;4.25;2.00;;;;;31.14;100.00;101729.03;5017253;28;45474;-66
2021/08/11 09:52:52;;;;;;;;;3.25;3.25;;;;;32.10;100.00;101727.88;5017304;28;46567;-66
2021/08/11 09:55:19;;;;;;;;;3.25;3.25;;;;;32.96;100.00;101735.31;5017597;28;45612;-66
2021/08/11 09:57:45;;;;;;;;;3.50;2.00;;;;;33.76;100.00;101729.50;5017780;28;45506;-66
2021/08/11 10:00:14;;;;;;;;;3.75;3.50;;;;;34.80;100.00;101721.88;5035867;28;45492;-66
2021/08/11 10:02:41;;;;;;;;;4.00;4.00;;;;;35.71;100.00;101727.88;5057561;28;46128;-66
2021/08/11 10:05:07;;;;;;;;;3.00;3.00;;;;;36.62;100.00;101721.75;5057543;28;45640;-66
2021/08/11 10:07:32;;;;;;;;;5.00;4.25;;;;;37.06;98.30;101722.31;5108864;27;45421;-66
2021/08/11 10:10:16;;;;;;;;;3.75;3.00;;;;;35.84;96.42;101731.03;5120870;27;45337;-66
2021/08/11 10:12:41;;;;;;;;;5.00;4.75;;;;;35.58;100.00;101713.88;5120406;27;45407;-66
2021/08/11 10:15:07;;;;;;;;;4.00;3.00;;;;;35.63;98.45;101727.84;5119943;27;45365;-66
2021/08/11 10:17:34;;;;;;;;;5.00;4.75;;;;;35.36;95.68;101720.72;5119814;27;45359;-68
2021/08/11 10:20:04;;;;;;;;;4.00;3.75;;;;;34.52;96.18;101721.13;5120409;27;45415;-67
2021/08/11 10:22:30;;;;;;;;;3.75;3.25;;;;;33.86;97.10;101721.34;5119997;27;47028;-67
2021/08/11 10:24:57;;;;;;;;;4.50;4.50;;;;;33.77;100.00;101724.94;5119862;27;45356;-66
2021/08/11 10:27:22;;;;;;;;;4.00;4.00;;;;;34.40;100.00;101725.06;5120120;27;45445;-66
2021/08/11 10:29:50;;;;;;;;;5.00;4.00;;;;;35.34;96.32;101711.88;5120609;27;45291;-69
2021/08/11 10:32:20;;;;;;;;;3.25;3.00;;;;;36.37;95.16;101715.44;5120050;27;45289;-69
2021/08/11 10:34:47;;;;;;;;;4.00;4.00;;;;;37.21;89.18;101726.06;5120130;27;45326;-70
2021/08/11 10:37:13;;;;;;;;;4.00;3.00;;;;;37.90;88.07;101721.84;5120019;27;45417;-71
2021/08/11 10:39:40;;;;;;;;;4.00;4.00;;;;;38.33;81.78;101725.06;5120462;27;45349;-71
2021/08/11 10:42:11;;;;;;;;;5.50;5.50;;;;;38.60;71.90;101724.53;5119717;27;46157;-70
2021/08/11 10:44:38;;;;;;;;;4.00;3.50;;;;;38.42;77.43;101728.56;5119681;27;45615;-70
2021/08/11 10:47:05;;;;;;;;;5.00;5.00;;;;;37.74;75.59;101734.66;5119910;27;45397;-68
2021/08/11 10:49:32;;;;;;;;;4.00;3.00;;;;;36.54;78.83;101719.88;5119966;27;45483;-70
2021/08/11 10:52:03;;;;;;;;;2.75;2.75;;;;;35.46;82.59;101724.16;5119619;27;46742;-69
2021/08/11 10:54:53;;;;;;;;;5.00;4.00;;;;;35.27;87.23;101722.47;5119407;27;45469;-67
2021/08/11 10:57:34;;;;;;;;;3.50;3.50;;;;;36.29;84.35;101718.09;5119948;27;45325;-68
2021/08/11 11:00:00;;;;;;;;;3.25;3.25;;;;;37.24;84.37;101714.81;5120131;27;45299;-67
2021/08/11 11:02:41;;;;;;;;;5.00;4.00;;;;;39.01;81.77;101704.25;5120089;27;45375;-68
2021/08/11 11:05:08;;;;;;;;;4.00;4.00;;;;;40.66;77.75;101703.78;5120119;27;45453;-67
2021/08/11 11:07:34;;;;;;;;;4.75;4.00;;;;;41.78;72.09;101701.91;5120135;27;45342;-68
2021/08/11 11:10:23;;;;;;;;;3.00;3.00;;;;;42.04;65.44;101697.56;5119835;27;45429;-67
2021/08/11 11:12:49;;;;;;;;;5.00;5.00;;;;;42.45;66.35;101703.00;5119793;27;46638;-67
2021/08/11 11:15:14;;;;;;;;;4.75;4.00;;;;;43.04;66.77;101691.25;5119444;27;45378;-66
2021/08/11 11:18:09;;;;;;;;;4.00;4.00;;;;;44.11;64.97;101698.16;5119958;27;45292;-67
2021/08/11 11:20:36;;;;;;;;;4.25;4.00;;;;;45.09;63.23;101688.34;5052880;28;45360;-67
2021/08/11 11:23:04;;;;;;;;;3.50;2.50;;;;;46.13;61.66;101692.03;5035997;28;45574;-67
2021/08/11 11:25:56;;;;;;;;;3.00;3.00;;;;;44.80;53.25;101683.47;5019267;28;45443;-70
2021/08/11 11:28:56;;;;;;;;;4.75;3.75;;;;;42.92;54.98;101674.53;5034878;28;45600;-67
2021/08/11 11:31:31;;;;;;;;;4.50;4.00;;;;;40.98;58.22;101677.75;5035905;28;45551;-68
2021/08/11 11:34:18;;;;;;;;;4.00;4.00;;;;;39.16;63.40;101681.44;5035879;28;45413;-67
2021/08/11 11:36:44;;;;;;;;;5.00;4.75;;;;;38.04;63.32;101686.66;5035602;28;45355;-68
2021/08/11 11:39:13;;;;;;;;;5.00;4.75;;;;;39.14;65.59;101677.16;5036092;28;45505;-66
2021/08/11 11:42:08;;;;;;;;;6.00;4.00;;;;;40.71;62.06;101687.59;5035805;28;45562;-67
2021/08/11 11:44:42;;;;;;;;;5.00;5.00;;;;;41.65;58.73;101685.41;5035486;28;47455;-67
2021/08/11 11:50:32;;;;;;;;;5.75;5.00;;;;;41.93;58.35;101674.31;5035648;28;45539;-68
2021/08/11 11:53:01;;;;;;;;;5.25;5.00;;;;;43.10;56.13;101674.72;5035621;28;45481;-67
2021/08/11 11:55:27;;;;;;;;;4.25;4.25;;;;;44.28;56.31;101675.38;5035648;28;46449;-68
2021/08/11 11:57:57;;;;;;;;;4.25;4.00;;;;;45.13;51.00;101681.28;5095101;27;45333;-68
2021/08/11 12:00:23;;;;;;;;;4.50;3.75;;;;;44.78;51.17;101677.34;5118950;27;45268;-68
2021/08/11 12:06:11;;;;;;;;;4.50;4.50;;;;;43.46;50.56;101670.66;5118834;27;45379;-68
2021/08/11 12:08:36;;;;;;;;;3.75;3.75;;;;;43.68;53.33;101665.72;5118984;27;45425;-67
2021/08/11 12:11:11;;;;;;;;;3.00;3.00;;;;;44.12;53.53;101675.91;5119173;27;45428;-68
2021/08/11 12:13:43;;;;;;;;;3.25;3.25;;;;;44.46;53.64;101673.78;5119214;27;45319;-66
2021/08/11 12:16:10;;;;;;;;;4.25;4.25;;;;;44.71;51.74;101676.56;5118825;27;45700;-68
2021/08/11 12:21:57;;;;;;;;;4.50;4.00;;;;;45.32;48.12;101665.63;5118648;27;45425;-67
2021/08/11 12:24:26;;;;;;;;;5.00;5.00;;;;;45.73;46.51;101672.41;5118752;27;45333;-66
2021/08/11 12:26:51;;;;;;;;;3.00;3.00;;;;;45.36;46.46;101668.78;5118076;27;46177;-66